createdAt,value
2022-09-12T00:00:52.646Z,97128.50
2022-09-12T00:03:19.300Z,97139.84
2022-09-12T00:05:47.676Z,97135.53
2022-09-12T00:08:15.013Z,97142.47
2022-09-12T00:10:43.821Z,97131.47
2022-09-12T00:13:11.066Z,97126.47
2022-09-12T00:15:39.777Z,97129.94
2022-09-12T00:18:06.793Z,97125.63
2022-09-12T00:20:33.503Z,97130.53
2022-09-12T00:23:00.760Z,97127.78
2022-09-12T00:25:27.773Z,97119.44
2022-09-12T00:27:54.404Z,97121.94
2022-09-12T00:30:21.343Z,97116.19
2022-09-12T00:32:48.291Z,97115.28
2022-09-12T00:35:15.130Z,97108.59
2022-09-12T00:37:41.810Z,97108.63
2022-09-12T00:40:08.902Z,97106.94
2022-09-12T00:42:35.604Z,97102.16
2022-09-12T00:45:02.300Z,97103.59
2022-09-12T00:47:29.742Z,97096.06
2022-09-12T00:49:59.459Z,97098.34
2022-09-12T00:52:40.667Z,97103.84
2022-09-12T00:55:15.494Z,97096.91
2022-09-12T00:57:50.978Z,97095.47
2022-09-12T01:00:20.783Z,97087.81
2022-09-12T01:02:51.103Z,97088.31
2022-09-12T01:05:18.078Z,97089.03
2022-09-12T01:07:48.473Z,97088.31
2022-09-12T01:10:15.582Z,97089.03
2022-09-12T01:12:43.415Z,97075.31
2022-09-12T01:15:10.755Z,97085.44
2022-09-12T01:18:08.734Z,97083.16
2022-09-12T01:21:06.919Z,97082.47
2022-09-12T01:23:44.838Z,97081.41
2022-09-12T01:26:36.914Z,97075.66
2022-09-12T01:29:55.646Z,97078.31
2022-09-12T01:32:56.210Z,97072.56
2022-09-12T01:35:30.351Z,97070.16
2022-09-12T01:37:59.853Z,97072.06
2022-09-12T01:40:43.610Z,97067.78
2022-09-12T01:43:38.062Z,97058.09
2022-09-12T01:46:18.015Z,97065.38
2022-09-12T01:48:50.874Z,97071.34
2022-09-12T01:51:28.121Z,97067.66
2022-09-12T01:54:00.813Z,97071.47
2022-09-12T01:56:29.864Z,97069.91
2022-09-12T01:59:10.107Z,97061.31
2022-09-12T02:01:45.612Z,97056.53
2022-09-12T02:04:19.266Z,97054.88
2022-09-12T02:07:16.236Z,97058.91
2022-09-12T02:10:09.965Z,97060.81
2022-09-12T02:12:48.186Z,97053.53
2022-09-12T02:15:18.117Z,97058.88
2022-09-12T02:17:48.077Z,97050.78
2022-09-12T02:20:43.950Z,97047.69
2022-09-12T02:23:09.911Z,97044.69
2022-09-12T02:25:39.270Z,97046.63
2022-09-12T02:28:10.318Z,97047.91
2022-09-12T02:31:08.808Z,97045.16
2022-09-12T02:34:12.129Z,97045.16
2022-09-12T02:36:50.069Z,97047.69
2022-09-12T02:39:21.114Z,97055.66
2022-09-12T02:41:50.981Z,97054.09
2022-09-12T02:44:17.889Z,97054.94
2022-09-12T02:46:49.655Z,97053.38
2022-09-12T02:49:17.722Z,97043.47
2022-09-12T02:51:45.670Z,97049.31
2022-09-12T02:54:13.397Z,97048.47
2022-09-12T02:56:42.973Z,97038.06
2022-09-12T02:59:12.203Z,97049.03
2022-09-12T03:01:44.497Z,97036.53
2022-09-12T03:04:32.597Z,97031.66
2022-09-12T03:07:09.647Z,97039.38
2022-09-12T03:10:08.089Z,97044.88
2022-09-12T03:12:45.361Z,97039.28
2022-09-12T03:15:49.095Z,97035.56
2022-09-12T03:18:29.575Z,97034.47
2022-09-12T03:21:12.960Z,97039.09
2022-09-12T03:24:18.182Z,97035.78
2022-09-12T03:26:48.514Z,97037.22
2022-09-12T03:29:16.114Z,97036.63
2022-09-12T03:31:53.847Z,97031.84
2022-09-12T03:34:21.494Z,97036.50
2022-09-12T03:36:48.699Z,97030.41
2022-09-12T03:39:15.916Z,97026.72
2022-09-12T03:41:42.896Z,97032.66
2022-09-12T03:44:09.757Z,97028.63
2022-09-12T03:46:36.658Z,97019.19
2022-09-12T03:49:03.875Z,97016.59
2022-09-12T03:51:31.060Z,97017.31
2022-09-12T03:53:57.753Z,97014.69
2022-09-12T03:56:24.574Z,97014.22
2022-09-12T03:58:51.239Z,97017.19
2022-09-12T04:01:19.766Z,97010.66
2022-09-12T04:03:49.302Z,97004.09
2022-09-12T04:06:22.883Z,97008.66
2022-09-12T04:08:52.390Z,97008.19
2022-09-12T04:11:21.399Z,97006.41
2022-09-12T04:13:48.660Z,97005.09
2022-09-12T04:16:16.455Z,97007.25
2022-09-12T04:18:43.587Z,97012.13
2022-09-12T04:21:18.703Z,97009.84
2022-09-12T04:23:45.789Z,97012.75
2022-09-12T04:26:13.816Z,97008.06
2022-09-12T04:28:41.064Z,96999.13
2022-09-12T04:31:12.293Z,96997.47
2022-09-12T04:33:39.301Z,97000.66
2022-09-12T04:36:08.599Z,96999.25
2022-09-12T04:38:36.290Z,96997.69
2022-09-12T04:41:13.653Z,97002.59
2022-09-12T04:43:40.614Z,97009.03
2022-09-12T04:46:11.279Z,97006.41
2022-09-12T04:48:38.795Z,97003.66
2022-09-12T04:51:33.771Z,97003.78
2022-09-12T04:54:06.361Z,97001.06
2022-09-12T04:56:34.313Z,97006.53
2022-09-12T04:59:01.588Z,97006.41
2022-09-12T05:01:29.927Z,97001.06
2022-09-12T05:03:58.433Z,97003.31
2022-09-12T05:06:30.540Z,97010.34
2022-09-12T05:08:58.519Z,97004.28
2022-09-12T05:11:46.720Z,97007.63
2022-09-12T05:14:16.431Z,97004.28
2022-09-12T05:16:48.575Z,97006.19
2022-09-12T05:19:16.420Z,96996.50
2022-09-12T05:21:43.091Z,96996.50
2022-09-12T05:24:11.098Z,96997.81
2022-09-12T05:26:37.763Z,97006.66
2022-09-12T05:29:06.136Z,97013.56
2022-09-12T05:31:33.095Z,97012.25
2022-09-12T05:33:59.817Z,97010.09
2022-09-12T05:36:29.252Z,97013.44
2022-09-12T05:38:56.338Z,97007.97
2022-09-12T05:41:25.511Z,97015.47
2022-09-12T05:43:54.390Z,97018.69
2022-09-12T05:46:22.948Z,97017.88
2022-09-12T05:48:55.135Z,97027.38
2022-09-12T05:51:28.350Z,97028.22
2022-09-12T05:53:57.623Z,97027.97
2022-09-12T05:56:26.658Z,97026.56
2022-09-12T05:58:56.408Z,97033.47
2022-09-12T06:01:23.293Z,97029.28
2022-09-12T06:03:51.880Z,97036.81
2022-09-12T06:06:21.502Z,97043.25
2022-09-12T06:08:50.439Z,97037.28
2022-09-12T06:11:23.091Z,97047.69
2022-09-12T06:13:51.050Z,97036.94
2022-09-12T06:16:23.178Z,97044.59
2022-09-12T06:18:53.716Z,97035.41
2022-09-12T06:21:21.761Z,97039.94
2022-09-12T06:23:49.203Z,97042.22
2022-09-12T06:26:17.527Z,97042.09
2022-09-12T06:28:45.366Z,97046.53
2022-09-12T06:31:25.829Z,97036.63
2022-09-12T06:33:54.326Z,97032.91
2022-09-12T06:36:28.950Z,97040.22
2022-09-12T06:38:57.666Z,97028.38
2022-09-12T06:41:25.348Z,97025.50
2022-09-12T06:43:52.225Z,97027.53
2022-09-12T06:46:19.200Z,97029.56
2022-09-12T06:48:46.277Z,97023.31
2022-09-12T06:51:15.727Z,97032.47
2022-09-12T06:53:43.737Z,97020.22
2022-09-12T06:56:15.305Z,97023.31
2022-09-12T06:58:43.530Z,97023.88
2022-09-12T07:01:34.856Z,97017.03
2022-09-12T07:04:05.269Z,97019.00
2022-09-12T07:06:40.082Z,97027.06
2022-09-12T07:09:08.852Z,97027.84
2022-09-12T07:11:38.076Z,97027.75
2022-09-12T07:14:06.639Z,97026.56
2022-09-12T07:16:35.543Z,97019.44
2022-09-12T07:19:03.598Z,97013.94
2022-09-12T07:21:30.339Z,97013.25
2022-09-12T07:24:00.395Z,97011.72
2022-09-12T07:26:29.078Z,97019.16
2022-09-12T07:29:03.921Z,97012.81
2022-09-12T07:31:39.837Z,97018.22
2022-09-12T07:34:06.915Z,97017.22
2022-09-12T07:36:35.602Z,97014.56
2022-09-12T07:39:02.263Z,97009.25
2022-09-12T07:41:31.435Z,97008.81
2022-09-12T07:44:01.912Z,97012.50
2022-09-12T07:46:29.676Z,97015.91
2022-09-12T07:48:58.010Z,97014.69
2022-09-12T07:51:25.926Z,97017.81
2022-09-12T07:53:52.723Z,97019.44
2022-09-12T07:56:20.021Z,97021.88
2022-09-12T07:58:48.258Z,97020.19
2022-09-12T08:01:17.597Z,97017.09
2022-09-12T08:03:47.056Z,97013.09
2022-09-12T08:06:23.805Z,97028.69
2022-09-12T08:08:51.762Z,97026.31
2022-09-12T08:11:20.359Z,97019.72
2022-09-12T08:13:51.691Z,97024.19
2022-09-12T08:16:22.392Z,97033.56
2022-09-12T08:18:49.842Z,97031.06
2022-09-12T08:21:21.362Z,97028.56
2022-09-12T08:23:52.182Z,97026.19
2022-09-12T08:26:19.199Z,97029.38
2022-09-12T08:28:46.163Z,97031.06
2022-09-12T08:31:16.048Z,97031.31
2022-09-12T08:33:42.883Z,97038.63
2022-09-12T08:36:15.585Z,97036.09
2022-09-12T08:38:44.273Z,97035.03
2022-09-12T08:41:41.387Z,97031.09
2022-09-12T08:44:14.005Z,97037.66
2022-09-12T08:46:56.767Z,97041.53
2022-09-12T08:49:31.112Z,97034.25
2022-09-12T08:51:59.883Z,97038.84
2022-09-12T08:54:29.198Z,97034.38
2022-09-12T08:57:00.203Z,97033.41
2022-09-12T08:59:27.433Z,97028.34
2022-09-12T09:01:57.565Z,97033.09
2022-09-12T09:05:11.944Z,97028.91
2022-09-12T09:08:01.208Z,97028.75
2022-09-12T09:10:46.384Z,97029.19
2022-09-12T09:13:41.849Z,97026.88
2022-09-12T09:16:20.631Z,97020.34
2022-09-12T09:18:48.469Z,97015.78
2022-09-12T09:21:20.854Z,97019.41
2022-09-12T09:23:51.169Z,97015.50
2022-09-12T09:26:27.372Z,97019.72
2022-09-12T09:28:57.317Z,97014.38
2022-09-12T09:31:26.714Z,97008.44
2022-09-12T09:33:57.489Z,97003.53
2022-09-12T09:36:30.357Z,97008.78
2022-09-12T09:39:09.267Z,97000.78
2022-09-12T09:41:51.724Z,97009.56
2022-09-12T09:44:18.545Z,97007.97
2022-09-12T09:46:45.271Z,97008.47
2022-09-12T09:49:13.592Z,97012.91
2022-09-12T09:51:41.694Z,97018.94
2022-09-12T09:54:26.833Z,97021.38
2022-09-12T09:56:53.619Z,97020.97
2022-09-12T09:59:29.464Z,97019.88
2022-09-12T10:01:57.990Z,97017.41
2022-09-12T10:04:27.922Z,97006.53
2022-09-12T10:06:58.061Z,97001.88
2022-09-12T10:09:33.013Z,97002.69
2022-09-12T10:12:02.067Z,97000.75
2022-09-12T10:14:40.463Z,96999.56
2022-09-12T10:17:33.161Z,97004.63
2022-09-12T10:20:20.367Z,96998.72
2022-09-12T10:22:48.717Z,97006.44
2022-09-12T10:25:19.198Z,97005.13
2022-09-12T10:27:56.754Z,97002.50
2022-09-12T10:30:28.212Z,96997.84
2022-09-12T10:33:06.474Z,96991.53
2022-09-12T10:35:44.027Z,96996.59
2022-09-12T10:38:18.536Z,96992.53
2022-09-12T10:40:46.575Z,96989.25
2022-09-12T10:43:41.479Z,96988.84
2022-09-12T10:46:19.080Z,96978.66
2022-09-12T10:48:48.072Z,96982.41
2022-09-12T10:51:23.726Z,96977.03
2022-09-12T10:54:02.299Z,96980.56
2022-09-12T10:56:32.652Z,96983.50
2022-09-12T10:59:34.790Z,96978.84
2022-09-12T11:02:14.330Z,96971.22
2022-09-12T11:05:37.046Z,96977.00
2022-09-12T11:08:07.861Z,96981.88
2022-09-12T11:10:54.646Z,96966.50
2022-09-12T11:13:25.542Z,96974.31
2022-09-12T11:16:17.181Z,96959.78
2022-09-12T11:19:09.145Z,96966.34
2022-09-12T11:21:50.487Z,96957.56
2022-09-12T11:24:32.434Z,96960.50
2022-09-12T11:27:41.382Z,96957.94
2022-09-12T11:30:12.351Z,96961.53
2022-09-12T11:33:05.912Z,96952.53
2022-09-12T11:35:34.933Z,96961.66
2022-09-12T11:38:08.370Z,96948.41
2022-09-12T11:40:43.640Z,96947.72
2022-09-12T11:43:19.225Z,96947.09
2022-09-12T11:45:46.741Z,96952.13
2022-09-12T11:48:32.216Z,96947.34
2022-09-12T11:51:00.336Z,96942.59
2022-09-12T11:53:31.592Z,96942.59
2022-09-12T11:56:06.574Z,96939.19
2022-09-12T11:58:33.371Z,96942.72
2022-09-12T12:01:11.753Z,96945.47
2022-09-12T12:03:44.496Z,96942.03
2022-09-12T12:06:21.397Z,96937.25
2022-09-12T12:08:50.418Z,96929.72
2022-09-12T12:11:38.449Z,96926.34
2022-09-12T12:14:15.977Z,96925.00
2022-09-12T12:16:42.938Z,96925.75
2022-09-12T12:19:15.703Z,96918.84
2022-09-12T12:21:49.813Z,96923.13
2022-09-12T12:24:28.759Z,96917.59
2022-09-12T12:27:04.030Z,96928.19
2022-09-12T12:29:43.390Z,96922.69
2022-09-12T12:32:10.672Z,96922.81
2022-09-12T12:34:42.469Z,96924.25
2022-09-12T12:37:29.775Z,96916.59
2022-09-12T12:40:04.686Z,96915.88
2022-09-12T12:42:34.825Z,96915.91
2022-09-12T12:45:03.684Z,96924.47
2022-09-12T12:47:40.784Z,96911.88
2022-09-12T12:50:10.531Z,96911.94
2022-09-12T12:52:53.753Z,96913.38
2022-09-12T12:55:29.048Z,96907.78
2022-09-12T12:58:00.826Z,96903.56
2022-09-12T13:00:32.085Z,96898.00
2022-09-12T13:03:02.064Z,96900.84
2022-09-12T13:05:31.379Z,96899.53
2022-09-12T13:08:21.330Z,96894.66
2022-09-12T13:10:53.648Z,96890.47
2022-09-12T13:13:34.407Z,96888.34
2022-09-12T13:16:01.189Z,96889.06
2022-09-12T13:18:48.563Z,96889.81
2022-09-12T13:21:19.085Z,96887.78
2022-09-12T13:24:01.202Z,96880.81
2022-09-12T13:26:28.114Z,96880.88
2022-09-12T13:29:17.469Z,96877.38
2022-09-12T13:31:47.488Z,96873.88
2022-09-12T13:34:21.182Z,96873.22
2022-09-12T13:37:06.893Z,96875.28
2022-09-12T13:39:52.088Z,96868.97
2022-09-12T13:42:40.680Z,96866.22
2022-09-12T13:45:13.338Z,96869.00
2022-09-12T13:47:44.888Z,96863.41
2022-09-12T13:50:18.282Z,96869.72
2022-09-12T13:52:48.427Z,96866.25
2022-09-12T13:55:21.710Z,96865.63
2022-09-12T13:57:58.127Z,96864.91
2022-09-12T14:00:24.899Z,96867.75
2022-09-12T14:03:14.257Z,96863.50
2022-09-12T14:05:44.671Z,96862.84
2022-09-12T14:08:14.391Z,96857.25
2022-09-12T14:10:45.378Z,96848.84
2022-09-12T14:13:23.422Z,96852.41
2022-09-12T14:15:52.564Z,96844.03
2022-09-12T14:18:25.766Z,96848.94
2022-09-12T14:20:54.127Z,96846.84
2022-09-12T14:23:27.531Z,96839.16
2022-09-12T14:25:56.342Z,96836.38
2022-09-12T14:28:23.931Z,96844.78
2022-09-12T14:31:03.853Z,96839.88
2022-09-12T14:33:48.865Z,96829.38
2022-09-12T14:36:25.325Z,96825.19
2022-09-12T14:39:06.682Z,96828.72
2022-09-12T14:41:40.519Z,96829.44
2022-09-12T14:44:14.303Z,96828.03
2022-09-12T14:46:42.254Z,96823.13
2022-09-12T14:49:09.092Z,96827.34
2022-09-12T14:51:38.758Z,96828.72
2022-09-12T14:54:05.561Z,96821.75
2022-09-12T14:56:41.253Z,96814.72
2022-09-12T14:59:26.717Z,96814.75
2022-09-12T15:02:21.068Z,96810.53
2022-09-12T15:04:56.606Z,96816.13
2022-09-12T15:07:23.229Z,96805.66
2022-09-12T15:09:50.077Z,96807.75
2022-09-12T15:12:16.927Z,96809.16
2022-09-12T15:14:43.687Z,96806.38
2022-09-12T15:17:10.515Z,96814.75
2022-09-12T15:19:37.169Z,96816.84
2022-09-12T15:22:03.894Z,96821.75
2022-09-12T15:24:30.495Z,96819.03
2022-09-12T15:26:57.210Z,96820.97
2022-09-12T15:29:23.915Z,96819.03
2022-09-12T15:31:51.291Z,96804.94
2022-09-12T15:34:17.999Z,96812.66
2022-09-12T15:36:44.689Z,96790.66
2022-09-12T15:39:11.982Z,96793.25
2022-09-12T15:41:39.068Z,96779.09
2022-09-12T15:44:12.237Z,96783.88
2022-09-12T15:46:39.122Z,96778.56
2022-09-12T15:49:07.011Z,96783.25
2022-09-12T15:51:34.201Z,96775.41
2022-09-12T15:54:04.323Z,96764.31
2022-09-12T15:56:31.065Z,96762.91
2022-09-12T15:58:59.617Z,96762.38
2022-09-12T16:01:28.214Z,96748.38
2022-09-12T16:03:54.950Z,96756.91
2022-09-12T16:06:22.346Z,96751.81
2022-09-12T16:08:49.552Z,96747.38
2022-09-12T16:11:26.682Z,96732.47
2022-09-12T16:13:54.058Z,96736.28
2022-09-12T16:16:20.865Z,96731.16
2022-09-12T16:18:47.789Z,96726.38
2022-09-12T16:21:15.707Z,96722.31
2022-09-12T16:23:43.935Z,96719.34
2022-09-12T16:26:11.028Z,96714.28
2022-09-12T16:28:37.928Z,96709.47
2022-09-12T16:31:06.239Z,96709.94
2022-09-12T16:33:33.560Z,96706.03
2022-09-12T16:36:06.669Z,96703.31
2022-09-12T16:38:33.870Z,96709.25
2022-09-12T16:41:05.259Z,96700.53
2022-09-12T16:43:33.342Z,96700.97
2022-09-12T16:46:11.910Z,96715.53
2022-09-12T16:48:49.302Z,96718.41
2022-09-12T16:51:21.253Z,96720.47
2022-09-12T16:53:48.817Z,96712.81
2022-09-12T16:56:15.765Z,96714.28
2022-09-12T16:58:43.073Z,96712.53
2022-09-12T17:01:12.980Z,96710.94
2022-09-12T17:03:40.142Z,96718.13
2022-09-12T17:06:09.021Z,96727.00
2022-09-12T17:08:40.693Z,96727.34
2022-09-12T17:11:12.703Z,96727.00
2022-09-12T17:14:03.346Z,96725.28
2022-09-12T17:16:27.550Z,96726.28
2022-09-12T17:18:54.981Z,96721.66
2022-09-12T17:21:22.015Z,96719.81
2022-09-12T17:23:49.246Z,96722.06
2022-09-12T17:26:16.543Z,96718.53
2022-09-12T17:28:43.902Z,96730.44
2022-09-12T17:31:13.129Z,96743.31
2022-09-12T17:33:40.850Z,96741.63
2022-09-12T17:36:15.112Z,96739.00
2022-09-12T17:38:43.094Z,96738.72
2022-09-12T17:41:17.764Z,96748.72
2022-09-12T17:43:46.462Z,96757.03
2022-09-12T17:46:14.124Z,96758.78
2022-09-12T17:48:41.704Z,96753.03
2022-09-12T17:51:09.877Z,96755.50
2022-09-12T17:53:36.708Z,96759.31
2022-09-12T17:56:07.545Z,96749.00
2022-09-12T17:58:34.758Z,96752.06
2022-09-12T18:01:30.705Z,96753.22
2022-09-12T18:04:00.553Z,96758.00
2022-09-12T18:06:33.874Z,96763.38
2022-09-12T18:09:05.381Z,96768.47
2022-09-12T18:11:32.576Z,96761.69
2022-09-12T18:13:59.765Z,96762.50
2022-09-12T18:16:31.652Z,96756.31
2022-09-12T18:19:01.279Z,96756.00
2022-09-12T18:21:29.203Z,96759.34
2022-09-12T18:23:58.962Z,96754.22
2022-09-12T18:26:26.709Z,96753.94
2022-09-12T18:28:53.962Z,96759.81
2022-09-12T18:31:23.706Z,96765.41
2022-09-12T18:33:50.894Z,96761.88
2022-09-12T18:36:20.596Z,96762.16
2022-09-12T18:38:48.299Z,96766.44
2022-09-12T18:41:17.307Z,96764.59
2022-09-12T18:43:44.329Z,96766.47
2022-09-12T18:46:19.476Z,96758.66
2022-09-12T18:48:46.729Z,96766.72
2022-09-12T18:51:26.373Z,96758.38
2022-09-12T18:53:56.176Z,96759.38
2022-09-12T18:56:27.792Z,96758.88
2022-09-12T18:58:56.226Z,96754.81
2022-09-12T19:01:25.275Z,96758.38
2022-09-12T19:03:53.278Z,96760.94
2022-09-12T19:06:22.053Z,96758.78
2022-09-12T19:08:50.224Z,96765.81
2022-09-12T19:11:18.009Z,96756.09
2022-09-12T19:13:46.780Z,96757.38
2022-09-12T19:16:15.934Z,96757.72
2022-09-12T19:18:42.782Z,96751.41
2022-09-12T19:21:14.912Z,96747.88
2022-09-12T19:23:41.743Z,96753.53
2022-09-12T19:26:10.772Z,96750.84
2022-09-12T19:28:37.465Z,96741.91
2022-09-12T19:31:10.456Z,96740.41
2022-09-12T19:33:37.781Z,96735.38
2022-09-12T19:36:17.494Z,96732.28
2022-09-12T19:38:54.850Z,96743.19
2022-09-12T19:41:21.760Z,96738.84
2022-09-12T19:43:48.750Z,96729.84
2022-09-12T19:46:23.844Z,96723.47
2022-09-12T19:48:51.462Z,96725.44
2022-09-12T19:51:18.707Z,96720.94
2022-09-12T19:53:46.072Z,96723.00
2022-09-12T19:56:14.374Z,96732.59
2022-09-12T19:58:44.294Z,96747.72
2022-09-12T20:01:12.114Z,96740.13
2022-09-12T20:03:39.279Z,96741.38
2022-09-12T20:06:08.225Z,96739.19
2022-09-12T20:08:35.157Z,96740.44
2022-09-12T20:11:01.868Z,96749.78
2022-09-12T20:13:28.578Z,96755.16
2022-09-12T20:15:55.288Z,96752.41
2022-09-12T20:18:21.964Z,96751.59
2022-09-12T20:20:48.638Z,96750.81
2022-09-12T20:23:15.346Z,96738.19
2022-09-12T20:25:42.063Z,96745.03
2022-09-12T20:28:08.659Z,96743.63
2022-09-12T20:30:35.346Z,96744.25
2022-09-12T20:33:02.310Z,96750.34
2022-09-12T20:35:29.048Z,96755.78
2022-09-12T20:37:55.697Z,96760.50
2022-09-12T20:40:22.454Z,96755.31
2022-09-12T20:42:49.353Z,96751.69
2022-09-12T20:45:16.054Z,96739.75
2022-09-12T20:47:42.705Z,96741.72
2022-09-12T20:50:09.890Z,96741.56
2022-09-12T20:52:36.897Z,96748.50
2022-09-12T20:55:03.878Z,96736.06
2022-09-12T20:57:30.529Z,96738.22
2022-09-12T20:59:57.309Z,96738.59
2022-09-12T21:02:24.322Z,96744.13
2022-09-12T21:04:51.182Z,96740.00
2022-09-12T21:07:17.873Z,96744.81
2022-09-12T21:09:44.674Z,96742.13
2022-09-12T21:12:11.335Z,96735.84
2022-09-12T21:14:38.071Z,96742.59
2022-09-12T21:17:05.366Z,96736.28
2022-09-12T21:19:32.096Z,96739.78
2022-09-12T21:21:58.803Z,96732.75
2022-09-12T21:24:25.544Z,96731.31
2022-09-12T21:26:52.208Z,96735.56
2022-09-12T21:29:18.922Z,96736.84
2022-09-12T21:31:45.910Z,96737.47
2022-09-12T21:34:12.892Z,96738.88
2022-09-12T21:36:39.621Z,96735.16
2022-09-12T21:39:06.851Z,96733.66
2022-09-12T21:41:33.657Z,96733.66
2022-09-12T21:44:00.376Z,96736.34
2022-09-12T21:46:27.131Z,96736.41
2022-09-12T21:48:53.860Z,96730.09
2022-09-12T21:51:20.525Z,96727.72
2022-09-12T21:53:47.228Z,96726.75
2022-09-12T21:56:13.906Z,96737.69
2022-09-12T21:58:40.641Z,96741.88
2022-09-12T22:01:09.408Z,96738.50
2022-09-12T22:03:36.429Z,96746.84
2022-09-12T22:06:05.158Z,96741.63
2022-09-12T22:08:33.340Z,96733.28
2022-09-12T22:11:02.638Z,96726.44
2022-09-12T22:13:32.309Z,96732.13
2022-09-12T22:16:00.629Z,96728.72
2022-09-12T22:18:27.330Z,96724.03
2022-09-12T22:21:05.319Z,96725.44
2022-09-12T22:23:50.359Z,96726.22
2022-09-12T22:26:17.222Z,96723.41
2022-09-12T22:28:44.509Z,96717.69
2022-09-12T22:31:12.773Z,96717.56
2022-09-12T22:33:40.222Z,96710.44
2022-09-12T22:36:07.242Z,96704.03
2022-09-12T22:38:34.079Z,96707.84
2022-09-12T22:41:06.986Z,96705.66
2022-09-12T22:43:34.679Z,96696.03
2022-09-12T22:46:01.611Z,96706.97
2022-09-12T22:48:28.330Z,96708.28
2022-09-12T22:50:54.964Z,96706.81
2022-09-12T22:53:21.699Z,96705.38
2022-09-12T22:55:48.330Z,96703.16
2022-09-12T22:58:15.006Z,96701.53
2022-09-12T23:00:46.869Z,96688.91
2022-09-12T23:03:13.901Z,96678.41
2022-09-12T23:05:40.574Z,96682.41
2022-09-12T23:08:07.305Z,96672.63
2022-09-12T23:10:38.137Z,96682.25
2022-09-12T23:13:05.313Z,96682.25
2022-09-12T23:15:32.495Z,96670.59
2022-09-12T23:17:59.853Z,96678.16
2022-09-12T23:20:27.951Z,96684.28
2022-09-12T23:22:54.854Z,96678.78
2022-09-12T23:25:26.216Z,96671.84
2022-09-12T23:27:53.493Z,96668.00
2022-09-12T23:30:21.660Z,96679.28
2022-09-12T23:32:51.491Z,96684.59
2022-09-12T23:35:19.494Z,96686.13
2022-09-12T23:37:46.973Z,96691.72
2022-09-12T23:40:13.898Z,96691.63
2022-09-12T23:42:40.941Z,96688.00
2022-09-12T23:45:08.046Z,96691.28
2022-09-12T23:47:34.726Z,96677.41
2022-09-12T23:50:01.501Z,96682.72
2022-09-12T23:52:28.334Z,96685.41
2022-09-12T23:54:55.019Z,96685.31
2022-09-12T23:57:22.341Z,96672.84
2022-09-12T23:59:49.078Z,96681.75
